createdAt,value
2019-04-28T00:01:21.073Z,16.57
2019-04-28T00:03:53.210Z,16.53
2019-04-28T00:06:25.233Z,16.52
2019-04-28T00:08:57.275Z,16.49
2019-04-28T00:11:29.218Z,16.47
2019-04-28T00:14:01.897Z,16.45
2019-04-28T00:16:34.008Z,16.46
2019-04-28T00:19:06.038Z,16.45
2019-04-28T00:21:41.380Z,16.45
2019-04-28T00:24:14.909Z,16.43
2019-04-28T00:26:52.061Z,16.42
2019-04-28T00:29:37.321Z,16.42
2019-04-28T00:31:57.761Z,16.40
2019-04-28T00:34:31.130Z,16.40
2019-04-28T00:37:05.093Z,16.39
2019-04-28T00:39:37.059Z,16.39
2019-04-28T00:42:09.199Z,16.36
2019-04-28T00:44:43.281Z,16.34
2019-04-28T00:47:15.180Z,16.31
2019-04-28T00:49:47.142Z,16.28
2019-04-28T00:52:22.198Z,16.27
2019-04-28T00:54:54.439Z,16.23
2019-04-28T00:57:26.398Z,16.20
2019-04-28T00:59:58.992Z,16.19
2019-04-28T01:02:32.916Z,16.19
2019-04-28T01:05:07.202Z,16.18
2019-04-28T01:07:41.174Z,16.18
2019-04-28T01:10:14.714Z,16.18
2019-04-28T01:12:47.031Z,16.15
2019-04-28T01:15:20.633Z,16.14
2019-04-28T01:17:56.898Z,16.10
2019-04-28T01:20:29.675Z,16.11
2019-04-28T01:23:01.689Z,16.08
2019-04-28T01:25:34.927Z,16.07
2019-04-28T01:28:06.877Z,16.06
2019-04-28T01:30:40.482Z,16.04
2019-04-28T01:33:20.584Z,16.02
2019-04-28T01:35:52.785Z,16.00
2019-04-28T01:38:24.724Z,16.01
2019-04-28T01:40:57.055Z,16.01
2019-04-28T01:43:29.505Z,16.01
2019-04-28T01:46:02.678Z,16.01
2019-04-28T01:48:34.628Z,15.99
2019-04-28T01:51:06.584Z,15.96
2019-04-28T01:53:39.591Z,15.95
2019-04-28T01:56:12.117Z,15.93
2019-04-28T01:58:44.064Z,15.90
2019-04-28T02:01:16.042Z,15.88
2019-04-28T02:03:47.981Z,15.83
2019-04-28T02:06:19.964Z,15.79
2019-04-28T02:08:51.893Z,15.74
2019-04-28T02:11:24.212Z,15.69
2019-04-28T02:13:56.244Z,15.66
2019-04-28T02:16:29.582Z,15.67
2019-04-28T02:19:01.825Z,15.67
2019-04-28T02:21:39.585Z,15.65
2019-04-28T02:24:31.252Z,15.62
2019-04-28T02:27:03.416Z,15.58
2019-04-28T02:29:35.721Z,15.58
2019-04-28T02:32:10.387Z,15.56
2019-04-28T02:34:43.009Z,15.50
2019-04-28T02:37:15.031Z,15.43
2019-04-28T02:39:46.992Z,15.41
2019-04-28T02:42:20.808Z,15.39
2019-04-28T02:44:52.961Z,15.34
2019-04-28T02:47:25.189Z,15.29
2019-04-28T02:50:00.953Z,15.25
2019-04-28T02:52:41.523Z,15.19
2019-04-28T02:55:13.568Z,15.17
2019-04-28T03:02:20.840Z,15.00
2019-04-28T03:04:52.062Z,14.97
2019-04-28T03:07:24.028Z,14.97
2019-04-28T03:09:56.050Z,14.95
2019-04-28T03:12:28.001Z,14.90
2019-04-28T03:15:00.511Z,14.90
2019-04-28T03:17:32.841Z,14.89
2019-04-28T03:20:06.542Z,14.86
2019-04-28T03:22:40.856Z,14.85
2019-04-28T03:25:14.028Z,14.85
2019-04-28T03:28:05.866Z,14.87
2019-04-28T03:30:53.283Z,14.88
2019-04-28T03:33:25.372Z,14.88
2019-04-28T03:35:57.895Z,14.88
2019-04-28T03:38:31.003Z,14.90
2019-04-28T03:41:03.187Z,14.91
2019-04-28T03:43:35.143Z,14.97
2019-04-28T03:46:11.508Z,14.97
2019-04-28T03:48:43.520Z,14.97
2019-04-28T03:51:15.512Z,14.96
2019-04-28T03:53:47.449Z,14.95
2019-04-28T03:56:20.984Z,14.96
2019-04-28T03:58:53.028Z,14.95
2019-04-28T04:01:24.995Z,14.90
2019-04-28T04:03:56.962Z,14.85
2019-04-28T04:06:31.074Z,14.83
2019-04-28T04:09:02.560Z,14.87
2019-04-28T04:11:36.155Z,14.91
2019-04-28T04:14:27.749Z,14.92
2019-04-28T04:17:01.336Z,14.93
2019-04-28T04:19:35.175Z,14.96
2019-04-28T04:22:10.054Z,14.95
2019-04-28T04:24:41.105Z,14.89
2019-04-28T04:27:13.058Z,14.85
2019-04-28T04:29:45.015Z,14.80
2019-04-28T04:32:23.077Z,14.75
2019-04-28T04:34:50.734Z,14.74
2019-04-28T04:37:22.761Z,14.67
2019-04-28T04:39:54.710Z,14.61
2019-04-28T04:42:26.671Z,14.62
2019-04-28T04:45:00.510Z,14.62
2019-04-28T04:47:32.883Z,14.59
2019-04-28T04:50:06.828Z,14.54
2019-04-28T04:52:40.231Z,14.56
2019-04-28T04:55:12.852Z,14.54
2019-04-28T04:57:44.885Z,14.51
2019-04-28T05:00:25.139Z,14.51
2019-04-28T05:03:00.842Z,14.49
2019-04-28T05:05:40.505Z,14.50
2019-04-28T05:08:15.465Z,14.53
2019-04-28T05:10:46.115Z,14.56
2019-04-28T05:13:19.964Z,14.59
2019-04-28T05:15:52.635Z,14.61
2019-04-28T05:18:25.564Z,14.68
2019-04-28T05:20:59.342Z,14.70
2019-04-28T05:23:32.819Z,14.75
2019-04-28T05:26:08.119Z,14.76
2019-04-28T05:28:43.970Z,14.79
2019-04-28T05:31:19.999Z,14.86
2019-04-28T05:33:46.372Z,14.91
2019-04-28T05:36:18.339Z,14.90
2019-04-28T05:38:50.308Z,14.87
2019-04-28T05:41:22.322Z,14.87
2019-04-28T05:43:54.280Z,14.87
2019-04-28T05:46:26.235Z,14.91
2019-04-28T05:49:02.511Z,14.98
2019-04-28T05:51:51.445Z,15.00
2019-04-28T05:54:37.198Z,14.97
2019-04-28T05:57:10.785Z,14.85
2019-04-28T05:59:47.544Z,14.79
2019-04-28T06:02:22.038Z,14.81
2019-04-28T06:04:54.137Z,14.84
2019-04-28T06:07:27.995Z,14.84
2019-04-28T06:10:00.215Z,14.86
2019-04-28T06:12:32.453Z,14.86
2019-04-28T06:15:06.421Z,14.85
2019-04-28T06:17:39.716Z,14.87
2019-04-28T06:20:12.002Z,14.85
2019-04-28T06:22:44.269Z,14.83
2019-04-28T06:25:16.614Z,14.85
2019-04-28T06:27:48.556Z,14.86
2019-04-28T06:30:20.708Z,14.86
2019-04-28T06:32:52.663Z,14.87
2019-04-28T06:35:24.687Z,14.87
2019-04-28T06:37:56.636Z,14.88
2019-04-28T06:40:28.613Z,14.96
2019-04-28T06:43:00.578Z,15.02
2019-04-28T06:45:32.540Z,15.09
2019-04-28T06:48:04.568Z,15.14
2019-04-28T06:50:36.786Z,15.12
2019-04-28T06:53:08.822Z,15.11
2019-04-28T06:55:40.762Z,15.09
2019-04-28T06:58:13.095Z,15.03
2019-04-28T07:00:45.059Z,15.06
2019-04-28T07:03:22.989Z,15.12
2019-04-28T07:05:50.891Z,15.11
2019-04-28T07:08:22.843Z,15.10
2019-04-28T07:10:54.807Z,15.12
2019-04-28T07:13:26.767Z,15.13
2019-04-28T07:15:59.113Z,15.14
2019-04-28T07:18:31.368Z,15.18
2019-04-28T07:21:07.730Z,15.21
2019-04-28T07:23:40.491Z,15.14
2019-04-28T07:26:12.471Z,15.15
2019-04-28T07:28:44.855Z,15.16
2019-04-28T07:31:17.948Z,15.12
2019-04-28T07:33:50.212Z,15.07
2019-04-28T07:36:22.501Z,15.10
2019-04-28T07:38:54.444Z,15.10
2019-04-28T07:41:26.406Z,15.12
2019-04-28T07:43:58.367Z,15.12
2019-04-28T07:46:30.355Z,15.09
2019-04-28T07:49:02.975Z,15.08
2019-04-28T07:51:59.882Z,15.14
2019-04-28T07:54:31.840Z,15.21
2019-04-28T07:57:03.813Z,15.30
2019-04-28T07:59:53.707Z,15.34
2019-04-28T08:02:25.959Z,15.34
2019-04-28T08:05:15.331Z,15.40
2019-04-28T08:07:59.541Z,15.49
2019-04-28T08:10:31.570Z,15.53
2019-04-28T08:13:03.534Z,15.55
2019-04-28T08:15:35.483Z,15.56
2019-04-28T08:18:07.589Z,15.61
2019-04-28T08:20:39.541Z,15.63
2019-04-28T08:23:12.853Z,15.65
2019-04-28T08:25:44.818Z,15.64
2019-04-28T08:28:16.775Z,15.57
2019-04-28T08:30:48.816Z,15.45
2019-04-28T08:33:34.257Z,15.48
2019-04-28T08:36:06.221Z,15.48
2019-04-28T08:38:38.174Z,15.48
2019-04-28T08:41:10.220Z,15.50
2019-04-28T08:43:59.507Z,15.48
2019-04-28T08:46:31.480Z,15.47
2019-04-28T08:49:03.439Z,15.42
2019-04-28T08:51:35.467Z,15.43
2019-04-28T08:54:08.167Z,15.51
2019-04-28T08:56:40.189Z,15.63
2019-04-28T08:59:12.163Z,15.71
2019-04-28T09:01:44.115Z,15.79
2019-04-28T09:04:16.071Z,15.88
2019-04-28T09:06:48.293Z,15.91
2019-04-28T09:09:23.555Z,15.88
2019-04-28T09:11:55.507Z,15.87
2019-04-28T09:14:27.797Z,15.89
2019-04-28T09:16:59.748Z,15.89
2019-04-28T09:19:31.879Z,15.94
2019-04-28T09:22:05.128Z,15.98
2019-04-28T09:24:37.072Z,15.96
2019-04-28T09:27:09.031Z,15.90
2019-04-28T09:29:41.426Z,15.91
2019-04-28T09:32:13.384Z,15.96
2019-04-28T09:34:45.341Z,15.98
2019-04-28T09:37:17.307Z,15.98
2019-04-28T09:39:50.904Z,16.03
2019-04-28T09:42:30.774Z,16.05
2019-04-28T09:45:04.446Z,16.03
2019-04-28T09:47:36.407Z,16.08
2019-04-28T09:50:08.767Z,16.19
2019-04-28T09:52:40.794Z,16.25
2019-04-28T09:55:12.812Z,16.34
2019-04-28T09:57:44.775Z,16.42
2019-04-28T10:00:17.738Z,16.50
2019-04-28T10:02:49.696Z,16.56
2019-04-28T10:05:22.038Z,16.55
2019-04-28T10:07:53.988Z,16.54
2019-04-28T10:10:25.963Z,16.63
2019-04-28T10:12:57.906Z,16.67
2019-04-28T10:15:29.868Z,16.71
2019-04-28T10:18:01.837Z,16.79
2019-04-28T10:20:33.885Z,16.87
2019-04-28T10:23:05.943Z,16.97
2019-04-28T10:25:37.910Z,17.00
2019-04-28T10:28:10.310Z,17.04
2019-04-28T10:30:42.351Z,17.11
2019-04-28T10:33:14.314Z,17.20
2019-04-28T10:35:46.273Z,17.32
2019-04-28T10:38:18.253Z,17.47
2019-04-28T10:40:57.254Z,17.59
2019-04-28T10:43:29.217Z,17.66
2019-04-28T10:46:01.263Z,17.62
2019-04-28T10:48:33.211Z,17.59
2019-04-28T10:51:05.308Z,17.57
2019-04-28T10:53:37.258Z,17.69
2019-04-28T10:56:09.539Z,17.80
2019-04-28T10:58:43.144Z,17.81
2019-04-28T11:01:15.102Z,17.72
2019-04-28T11:03:48.753Z,17.75
2019-04-28T11:06:20.922Z,17.80
2019-04-28T11:09:30.434Z,17.89
2019-04-28T11:11:57.885Z,17.98
2019-04-28T11:14:29.843Z,18.02
2019-04-28T11:17:01.890Z,18.04
2019-04-28T11:19:33.851Z,18.04
2019-04-28T11:22:05.820Z,18.01
2019-04-28T11:24:39.191Z,18.01
2019-04-28T11:27:11.719Z,18.02
2019-04-28T11:29:43.676Z,18.01
2019-04-28T11:32:16.827Z,18.01
2019-04-28T11:34:53.629Z,17.95
2019-04-28T11:37:26.023Z,17.90
2019-04-28T11:39:57.971Z,17.86
2019-04-28T11:42:29.932Z,17.78
2019-04-28T11:45:02.035Z,17.70
2019-04-28T11:47:34.003Z,17.66
2019-04-28T11:50:07.270Z,17.58
2019-04-28T11:52:39.234Z,17.48
2019-04-28T11:55:11.461Z,17.39
2019-04-28T11:57:43.433Z,17.28
2019-04-28T12:00:17.950Z,17.18
2019-04-28T12:02:50.221Z,17.07
2019-04-28T12:05:34.056Z,17.01
2019-04-28T12:07:57.543Z,16.97
2019-04-28T12:10:43.349Z,16.96
2019-04-28T12:13:18.220Z,16.95
2019-04-28T12:15:54.516Z,16.94
2019-04-28T12:18:28.186Z,16.94
2019-04-28T12:21:00.251Z,16.96
2019-04-28T12:23:32.200Z,16.97
2019-04-28T12:26:04.166Z,17.00
2019-04-28T12:28:36.134Z,17.07
2019-04-28T12:31:08.174Z,17.10
2019-04-28T12:33:41.673Z,17.11
2019-04-28T12:36:13.638Z,17.13
2019-04-28T12:38:45.890Z,17.12
2019-04-28T12:41:17.862Z,17.11
2019-04-28T12:43:50.217Z,17.10
2019-04-28T12:46:22.185Z,17.07
2019-04-28T12:48:55.782Z,17.01
2019-04-28T12:51:27.734Z,16.95
2019-04-28T12:54:01.338Z,16.91
2019-04-28T12:56:33.310Z,16.75
2019-04-28T12:59:06.988Z,16.64
2019-04-28T13:01:49.314Z,16.57
2019-04-28T13:04:31.664Z,16.57
2019-04-28T13:07:05.334Z,16.57
2019-04-28T13:09:37.438Z,16.53
2019-04-28T13:12:09.669Z,16.52
2019-04-28T13:14:41.681Z,16.55
2019-04-28T13:17:13.665Z,16.55
2019-04-28T13:19:45.678Z,16.49
2019-04-28T13:22:17.671Z,16.44
2019-04-28T13:24:49.671Z,16.46
2019-04-28T13:27:21.655Z,16.48
2019-04-28T13:29:53.593Z,16.50
2019-04-28T13:32:25.603Z,16.51
2019-04-28T13:34:57.559Z,16.57
2019-04-28T13:37:29.676Z,16.59
2019-04-28T13:40:03.387Z,16.52
2019-04-28T13:42:35.604Z,16.50
2019-04-28T13:45:11.658Z,16.53
2019-04-28T13:47:43.777Z,16.63
2019-04-28T13:50:18.266Z,16.60
2019-04-28T13:52:50.724Z,16.61
2019-04-28T13:55:27.310Z,16.63
2019-04-28T13:58:03.931Z,16.67
2019-04-28T14:00:54.270Z,16.68
2019-04-28T14:03:44.255Z,16.75
2019-04-28T14:06:28.221Z,16.79
2019-04-28T14:08:52.361Z,16.85
2019-04-28T14:11:24.318Z,16.84
2019-04-28T14:13:56.297Z,16.77
2019-04-28T14:16:28.274Z,16.68
2019-04-28T14:19:00.539Z,16.58
2019-04-28T14:21:32.578Z,16.51
2019-04-28T14:24:04.621Z,16.46
2019-04-28T14:26:40.039Z,16.36
2019-04-28T14:29:11.534Z,16.35
2019-04-28T14:31:43.494Z,16.33
2019-04-28T14:34:15.428Z,16.34
2019-04-28T14:36:47.449Z,16.32
2019-04-28T14:39:20.746Z,16.34
2019-04-28T14:41:53.030Z,16.38
2019-04-28T14:44:25.116Z,16.40
2019-04-28T14:46:57.146Z,16.44
2019-04-28T14:49:29.561Z,16.49
2019-04-28T14:52:01.567Z,16.50
2019-04-28T14:54:51.129Z,16.47
2019-04-28T14:57:24.321Z,16.44
2019-04-28T14:59:58.162Z,16.46
2019-04-28T15:02:44.086Z,16.44
2019-04-28T15:05:20.530Z,16.39
2019-04-28T15:08:12.586Z,16.40
2019-04-28T15:10:46.286Z,16.45
2019-04-28T15:13:19.508Z,16.51
2019-04-28T15:15:51.623Z,16.55
2019-04-28T15:18:23.811Z,16.52
2019-04-28T15:20:55.901Z,16.52
2019-04-28T15:23:27.805Z,16.51
2019-04-28T15:26:00.137Z,16.50
2019-04-28T15:28:33.262Z,16.51
2019-04-28T15:31:05.306Z,16.50
2019-04-28T15:33:37.253Z,16.50
2019-04-28T15:36:09.217Z,16.49
2019-04-28T15:38:58.718Z,16.51
2019-04-28T15:41:48.395Z,16.49
2019-04-28T15:44:20.368Z,16.43
2019-04-28T15:46:52.420Z,16.37
2019-04-28T15:49:24.350Z,16.31
2019-04-28T15:51:56.304Z,16.22
2019-04-28T15:54:28.295Z,16.12
2019-04-28T15:57:00.421Z,16.05
2019-04-28T15:59:32.454Z,15.98
2019-04-28T16:02:04.777Z,15.95
2019-04-28T16:04:36.741Z,15.91
2019-04-28T16:07:08.674Z,15.92
2019-04-28T16:09:41.123Z,15.90
2019-04-28T16:12:13.138Z,15.91
2019-04-28T16:14:45.165Z,15.91
2019-04-28T16:17:19.961Z,15.89
2019-04-28T16:19:50.751Z,15.83
2019-04-28T16:22:22.701Z,15.77
2019-04-28T16:24:55.415Z,15.72
2019-04-28T16:27:27.483Z,15.69
2019-04-28T16:29:59.492Z,15.65
2019-04-28T16:32:31.513Z,15.64
2019-04-28T16:35:03.917Z,15.63
2019-04-28T16:37:38.947Z,15.61
2019-04-28T16:51:07.802Z,15.56
2019-04-28T16:53:41.091Z,15.54
2019-04-28T16:56:26.415Z,15.52
2019-04-28T16:59:15.024Z,15.50
2019-04-28T17:01:48.871Z,15.49
2019-04-28T17:04:21.200Z,15.46
2019-04-28T17:06:53.463Z,15.45
2019-04-28T17:09:25.742Z,15.44
2019-04-28T17:11:57.960Z,15.45
2019-04-28T17:14:30.489Z,15.46
2019-04-28T17:17:02.435Z,15.45
2019-04-28T17:19:34.717Z,15.45
2019-04-28T17:22:06.714Z,15.44
2019-04-28T17:24:38.654Z,15.41
2019-04-28T17:27:10.913Z,15.41
2019-04-28T17:29:43.188Z,15.40
2019-04-28T17:32:15.662Z,15.40
2019-04-28T17:34:47.632Z,15.40
2019-04-28T17:37:19.644Z,15.40
2019-04-28T17:39:51.612Z,15.41
2019-04-28T17:42:24.887Z,15.42
2019-04-28T17:44:56.911Z,15.42
2019-04-28T17:47:28.861Z,15.41
2019-04-28T17:50:00.873Z,15.39
2019-04-28T17:52:32.986Z,15.39
2019-04-28T17:55:06.564Z,15.32
2019-04-28T17:57:38.520Z,15.30
2019-04-28T18:00:21.487Z,15.28
2019-04-28T18:02:55.509Z,15.28
2019-04-28T18:05:35.538Z,15.20
2019-04-28T18:08:20.352Z,15.07
2019-04-28T18:10:41.121Z,15.03
2019-04-28T18:13:13.128Z,15.01
2019-04-28T18:15:58.846Z,14.99
2019-04-28T18:18:32.700Z,14.94
2019-04-28T18:21:04.735Z,14.91
2019-04-28T18:23:36.681Z,14.80
2019-04-28T18:26:08.992Z,14.75
2019-04-28T18:28:40.931Z,14.74
2019-04-28T18:31:14.589Z,14.74
2019-04-28T18:34:04.361Z,14.78
2019-04-28T18:36:47.172Z,14.79
2019-04-28T18:39:37.205Z,14.75
2019-04-28T18:42:14.833Z,14.70
2019-04-28T18:44:46.930Z,14.61
2019-04-28T18:47:18.885Z,14.61
2019-04-28T18:49:50.869Z,14.66
2019-04-28T18:52:22.816Z,14.70
2019-04-28T18:54:54.770Z,14.76
2019-04-28T18:57:26.732Z,14.79
2019-04-28T18:59:58.685Z,14.79
2019-04-28T19:02:35.194Z,14.78
2019-04-28T19:05:10.493Z,14.79
2019-04-28T19:07:49.979Z,14.79
2019-04-28T19:10:29.279Z,14.76
2019-04-28T19:13:19.023Z,14.75
2019-04-28T19:16:08.956Z,14.72
2019-04-28T19:18:42.550Z,14.69
2019-04-28T19:21:14.506Z,14.68
2019-04-28T19:23:46.450Z,14.68
2019-04-28T19:26:18.758Z,14.66
2019-04-28T19:28:50.719Z,14.66
2019-04-28T19:31:22.668Z,14.65
2019-04-28T19:33:54.663Z,14.62
2019-04-28T19:36:26.614Z,14.62
2019-04-28T19:39:03.298Z,14.62
2019-04-28T19:41:32.378Z,14.60
2019-04-28T19:44:04.454Z,14.61
2019-04-28T19:46:36.476Z,14.61
2019-04-28T19:49:08.404Z,14.60
2019-04-28T19:51:40.636Z,14.59
2019-04-28T19:54:13.354Z,14.60
2019-04-28T19:56:47.398Z,14.54
2019-04-28T19:59:37.447Z,14.52
2019-04-28T20:02:09.455Z,14.50
2019-04-28T20:04:41.410Z,14.47
2019-04-28T20:07:13.361Z,14.43
2019-04-28T20:09:45.312Z,14.38
2019-04-28T20:12:17.260Z,14.34
2019-04-28T20:14:49.770Z,14.30
2019-04-28T20:17:21.986Z,14.32
2019-04-28T20:19:53.937Z,14.31
2019-04-28T20:22:25.878Z,14.33
2019-04-28T20:24:57.859Z,14.34
2019-04-28T20:27:30.554Z,14.33
2019-04-28T20:30:03.626Z,14.28
2019-04-28T20:32:47.584Z,14.25
2019-04-28T20:35:24.103Z,14.22
2019-04-28T20:38:07.002Z,14.16
2019-04-28T20:41:01.179Z,14.10
2019-04-28T20:43:34.868Z,14.05
2019-04-28T20:46:08.613Z,14.06
2019-04-28T20:48:40.824Z,14.02
2019-04-28T20:51:13.854Z,14.01
2019-04-28T20:53:45.801Z,14.03
2019-04-28T20:56:17.917Z,14.01
2019-04-28T20:58:49.861Z,13.95
2019-04-28T21:01:21.819Z,13.96
2019-04-28T21:03:53.958Z,14.03
2019-04-28T21:06:25.895Z,14.00
2019-04-28T21:08:57.865Z,14.00
2019-04-28T21:11:29.796Z,13.93
2019-04-28T21:14:01.756Z,13.92
2019-04-28T21:16:33.707Z,13.89
2019-04-28T21:19:05.675Z,13.88
2019-04-28T21:21:37.618Z,13.86
2019-04-28T21:24:09.663Z,13.88
2019-04-28T21:26:41.601Z,13.91
2019-04-28T21:29:14.022Z,13.90
2019-04-28T21:31:45.983Z,13.91
2019-04-28T21:34:17.925Z,13.91
2019-04-28T21:36:49.904Z,13.95
2019-04-28T21:39:22.120Z,13.92
2019-04-28T21:41:54.944Z,13.90
2019-04-28T21:44:28.532Z,13.94
2019-04-28T21:47:08.251Z,13.99
2019-04-28T21:49:42.075Z,14.00
2019-04-28T21:52:14.015Z,13.97
2019-04-28T21:54:45.972Z,13.91
2019-04-28T21:57:17.916Z,13.92
2019-04-28T21:59:49.881Z,13.93
2019-04-28T22:02:22.004Z,13.92
2019-04-28T22:04:54.027Z,13.91
2019-04-28T22:07:26.270Z,13.95
2019-04-28T22:09:58.228Z,13.93
2019-04-28T22:12:30.191Z,13.87
2019-04-28T22:15:02.148Z,13.85
2019-04-28T22:17:34.095Z,13.83
2019-04-28T22:20:07.955Z,13.83
2019-04-28T22:22:39.911Z,13.82
2019-04-28T22:25:13.487Z,13.79
2019-04-28T22:27:45.449Z,13.80
2019-04-28T22:30:18.940Z,13.78
2019-04-28T22:32:50.887Z,13.68
2019-04-28T22:35:23.333Z,13.63
2019-04-28T22:37:55.275Z,13.65
2019-04-28T22:40:44.628Z,13.70
2019-04-28T22:43:16.575Z,13.76
2019-04-28T22:45:48.541Z,13.77
2019-04-28T22:48:24.530Z,13.79
2019-04-28T22:50:56.495Z,13.81
2019-04-28T22:53:30.125Z,13.84
2019-04-28T22:56:20.038Z,13.81
2019-04-28T22:58:53.629Z,13.78
2019-04-28T23:01:27.311Z,13.78
2019-04-28T23:04:03.660Z,13.76
2019-04-28T23:06:35.744Z,13.74
2019-04-28T23:09:11.385Z,13.75
2019-04-28T23:11:43.738Z,13.79
2019-04-28T23:14:15.954Z,13.74
2019-04-28T23:16:48.006Z,13.73
2019-04-28T23:19:21.580Z,13.78
2019-04-28T23:22:11.307Z,13.76
2019-04-28T23:24:43.258Z,13.74
2019-04-28T23:27:15.205Z,13.75
2019-04-28T23:29:47.159Z,13.75
2019-04-28T23:32:19.116Z,13.75
2019-04-28T23:34:51.074Z,13.75
2019-04-28T23:37:23.034Z,13.71
2019-04-28T23:39:55.002Z,13.71
2019-04-28T23:42:28.596Z,13.71
2019-04-28T23:45:00.566Z,13.67
2019-04-28T23:47:32.515Z,13.58
2019-04-28T23:50:08.721Z,13.60
2019-04-28T23:52:47.742Z,13.62
2019-04-28T23:55:20.265Z,13.62
2019-04-28T23:57:52.216Z,13.65
